Time;durP1;ratioP1;P1;durP2;ratioP2;P2;SDS_P1;SDS_P2;PMS_P1;PMS_P2;Temp;Humidity;BMP_temperature;BMP_pressure;BME280_temperature;BME280_humidity;BME280_pressure;Samples;Min_cycle;Max_cycle;Signal;HPM_P1;HPM_P2
2021/08/13 00:01:20;;;;;;;19.40;12.73;;;;;;;15.41;92.92;102058.06;4958052;28;20241;-85
2021/08/13 00:03:45;;;;;;;22.05;12.93;;;;;;;15.36;93.23;102058.84;4963520;28;20026;-83
2021/08/13 00:06:12;;;;;;;22.65;14.05;;;;;;;15.32;93.17;102052.59;4966065;28;20375;-86
2021/08/13 00:08:37;;;;;;;24.40;13.90;;;;;;;15.32;93.63;102058.78;4964216;28;20022;-85
2021/08/13 00:11:03;;;;;;;25.90;14.13;;;;;;;15.34;93.72;102058.81;4969260;28;20045;-81
2021/08/13 00:13:58;;;;;;;25.45;14.63;;;;;;;15.32;93.92;102057.91;4979396;28;20094;-82
2021/08/13 00:16:26;;;;;;;25.25;14.50;;;;;;;15.30;93.82;102070.22;4969169;28;20031;-86
2021/08/13 00:18:54;;;;;;;26.35;14.98;;;;;;;15.29;93.65;102077.31;4964879;28;20027;-82
2021/08/13 00:21:20;;;;;;;25.02;14.85;;;;;;;15.29;93.67;102076.44;4964886;28;20042;-85
2021/08/13 00:23:45;;;;;;;29.50;15.95;;;;;;;15.27;94.15;102080.78;4973823;28;20019;-84
2021/08/13 00:26:13;;;;;;;32.33;15.95;;;;;;;15.25;94.29;102082.53;4963603;28;20433;-77
2021/08/13 00:28:41;;;;;;;28.08;17.13;;;;;;;15.27;94.66;102086.09;4973297;28;20461;-85
2021/08/13 00:31:29;;;;;;;36.58;18.15;;;;;;;15.31;94.48;102087.94;4975727;28;20030;-87
2021/08/13 00:34:14;;;;;;;32.20;17.45;;;;;;;15.31;94.13;102091.50;4974377;28;20529;-85
2021/08/13 00:36:42;;;;;;;35.60;18.10;;;;;;;15.33;94.30;102091.53;4954268;28;20035;-84
2021/08/13 00:39:08;;;;;;;37.60;19.95;;;;;;;15.35;94.38;102095.06;4957999;28;20051;-78
2021/08/13 00:41:33;;;;;;;37.17;18.73;;;;;;;15.41;94.27;102086.31;4962939;28;20049;-83
2021/08/13 00:44:19;;;;;;;38.60;19.58;;;;;;;15.50;94.71;102090.03;4969899;28;20394;-84
2021/08/13 00:46:44;;;;;;;36.85;18.33;;;;;;;15.56;94.39;102083.94;4968089;28;20038;-82
2021/08/13 00:49:10;;;;;;;35.00;18.88;;;;;;;15.60;94.06;102085.75;4976242;28;20035;-83
2021/08/13 00:51:36;;;;;;;34.38;17.92;;;;;;;15.63;93.88;102079.63;4971368;28;20019;-83
2021/08/13 00:54:01;;;;;;;32.20;17.25;;;;;;;15.67;93.65;102070.84;4973080;28;20023;-83
2021/08/13 00:56:30;;;;;;;26.40;15.35;;;;;;;15.68;93.48;102081.47;4963587;28;20073;-82
2021/08/13 00:59:15;;;;;;;28.52;15.35;;;;;;;15.67;93.07;102086.75;4978350;28;20054;-79
2021/08/13 01:02:21;;;;;;;25.08;16.05;;;;;;;15.65;92.87;102084.09;4967152;28;20038;-79
2021/08/13 01:04:46;;;;;;;24.17;14.20;;;;;;;15.63;92.97;102084.94;4971837;28;20465;-81
2021/08/13 01:07:12;;;;;;;24.08;12.65;;;;;;;15.63;92.88;102084.94;4971291;28;20031;-81
2021/08/13 01:09:38;;;;;;;22.02;13.07;;;;;;;15.62;92.83;102088.44;4976234;28;20113;-86
2021/08/13 01:12:34;;;;;;;20.08;11.85;;;;;;;15.59;92.59;102089.28;4966936;28;20027;-81
2021/08/13 01:15:10;;;;;;;19.40;10.85;;;;;;;15.57;92.75;102099.00;4976957;28;20027;-78
2021/08/13 01:18:05;;;;;;;16.52;10.95;;;;;;;15.56;92.28;102088.31;4970130;28;20035;-81
2021/08/13 01:21:01;;;;;;;16.98;11.45;;;;;;;15.51;92.34;102090.91;4965754;28;20039;-83
2021/08/13 01:23:33;;;;;;;20.67;10.63;;;;;;;15.47;92.16;102091.75;4944390;28;20054;-79
2021/08/13 01:26:02;;;;;;;17.53;11.03;;;;;;;15.45;92.63;102094.38;4958109;28;20047;-85
2021/08/13 01:29:12;;;;;;;19.20;11.88;;;;;;;15.41;92.98;102095.19;4961444;28;20031;-84
2021/08/13 01:31:46;;;;;;;16.67;10.68;;;;;;;15.43;92.83;102098.75;4966781;28;20035;-78
2021/08/13 01:34:15;;;;;;;19.15;10.85;;;;;;;15.47;92.54;102095.28;4943777;28;20027;-80
2021/08/13 01:36:41;;;;;;;21.17;11.35;;;;;;;15.53;93.36;102094.47;4963644;28;20038;-85
2021/08/13 01:39:08;;;;;;;14.63;9.48;;;;;;;15.54;93.18;102090.09;4977574;28;20058;-79
2021/08/13 01:41:36;;;;;;;15.20;10.45;;;;;;;15.56;93.09;102093.63;4958807;28;20379;-85
2021/08/13 01:44:06;;;;;;;13.48;9.23;;;;;;;15.57;92.97;102090.13;4974060;28;20043;-85
2021/08/13 01:46:32;;;;;;;14.40;8.82;;;;;;;15.57;92.43;102090.13;4971050;28;20035;-81
2021/08/13 01:48:58;;;;;;;14.18;9.13;;;;;;;15.62;92.34;102091.09;4960769;28;20045;-81
2021/08/13 01:51:46;;;;;;;11.98;8.10;;;;;;;15.62;91.88;102081.34;4959461;28;20043;-81
2021/08/13 01:54:16;;;;;;;13.15;8.93;;;;;;;15.61;91.98;102086.66;4975113;28;20035;-82
2021/08/13 01:56:42;;;;;;;13.77;8.48;;;;;;;15.60;92.00;102090.16;4965578;28;20062;-79
2021/08/13 01:59:11;;;;;;;15.85;8.43;;;;;;;15.56;92.36;102090.97;4960314;28;20034;-84
2021/08/13 02:01:37;;;;;;;13.90;8.27;;;;;;;15.55;92.52;102097.19;4950134;28;20031;-85
2021/08/13 02:04:22;;;;;;;13.93;8.10;;;;;;;15.55;92.66;102105.13;4952633;28;20497;-80
2021/08/13 02:06:49;;;;;;;13.27;8.88;;;;;;;15.56;92.49;102104.25;4961167;28;20461;-81
2021/08/13 02:09:15;;;;;;;11.20;7.50;;;;;;;15.55;92.44;102103.38;4975666;28;20043;-83
2021/08/13 02:11:43;;;;;;;15.93;8.30;;;;;;;15.54;92.75;102095.38;4975670;28;20091;-78
2021/08/13 02:14:09;;;;;;;12.40;7.80;;;;;;;15.55;93.17;102098.06;4972554;28;20031;-79
2021/08/13 02:16:55;;;;;;;11.43;7.97;;;;;;;15.55;92.88;102091.88;4968956;28;20501;-82
2021/08/13 02:19:33;;;;;;;9.32;7.25;;;;;;;15.55;92.41;102087.44;4963608;28;20075;-78
2021/08/13 02:22:00;;;;;;;10.27;7.22;;;;;;;15.54;92.68;102090.97;4958897;28;20097;-83
2021/08/13 02:24:27;;;;;;;10.60;7.15;;;;;;;15.50;92.59;102090.03;4969623;28;20030;-77
2021/08/13 02:27:12;;;;;;;10.73;7.57;;;;;;;15.46;92.67;102092.59;4963071;28;20038;-81
2021/08/13 02:29:38;;;;;;;11.77;7.07;;;;;;;15.43;92.77;102090.78;4965823;28;20113;-78
2021/08/13 02:32:04;;;;;;;10.45;7.78;;;;;;;15.42;92.72;102096.94;4967937;28;20035;-84
2021/08/13 02:34:29;;;;;;;10.23;6.88;;;;;;;15.42;92.86;102096.94;4965698;28;20039;-82
2021/08/13 02:37:18;;;;;;;10.48;7.20;;;;;;;15.37;93.12;102095.09;4966996;28;20126;-82
2021/08/13 02:39:51;;;;;;;11.15;7.97;;;;;;;15.38;93.58;102100.41;4969803;28;20036;-79
2021/08/13 02:42:37;;;;;;;11.07;8.10;;;;;;;15.40;94.07;102098.69;4974785;28;20037;-82
2021/08/13 02:45:24;;;;;;;11.13;7.57;;;;;;;15.41;93.97;102094.28;4961913;28;20061;-80
2021/08/13 02:48:29;;;;;;;13.25;8.07;;;;;;;15.42;94.01;102091.66;4977130;28;20046;-84
2021/08/13 02:51:00;;;;;;;9.98;7.15;;;;;;;15.45;93.77;102094.38;4962672;28;20101;-83
2021/08/13 02:53:30;;;;;;;10.93;7.72;;;;;;;15.48;94.01;102090.88;4975591;28;20058;-84
2021/08/13 02:56:08;;;;;;;14.05;8.35;;;;;;;15.49;94.49;102090.00;4963141;28;20164;-81
2021/08/13 02:58:54;;;;;;;13.13;8.00;;;;;;;15.48;94.65;102094.41;4964606;28;20066;-81
2021/08/13 03:01:59;;;;;;;10.73;7.03;;;;;;;15.50;94.43;102092.69;4956847;28;20057;-79
2021/08/13 03:04:29;;;;;;;11.02;7.30;;;;;;;15.51;94.60;102090.91;4950188;28;20036;-80
2021/08/13 03:07:15;;;;;;;13.35;7.28;;;;;;;15.49;94.03;102093.56;4958933;28;20035;-81
2021/08/13 03:09:41;;;;;;;12.45;6.70;;;;;;;15.47;93.87;102100.56;4959938;28;20031;-83
2021/08/13 03:12:09;;;;;;;10.02;6.85;;;;;;;15.45;93.65;102107.63;4974433;28;20038;-81
2021/08/13 03:14:38;;;;;;;10.77;7.43;;;;;;;15.43;93.82;102101.41;4973721;28;20039;-80
2021/08/13 03:17:24;;;;;;;12.38;7.32;;;;;;;15.41;93.96;102110.19;4974908;28;20030;-83
2021/08/13 03:19:52;;;;;;;11.35;7.93;;;;;;;15.37;94.24;102111.91;4973590;28;20077;-83
2021/08/13 03:22:39;;;;;;;10.48;7.40;;;;;;;15.36;94.23;102102.16;4971133;28;20122;-79
2021/08/13 03:25:25;;;;;;;10.25;7.25;;;;;;;15.37;94.58;102098.66;4957829;28;20047;-84
2021/08/13 03:27:50;;;;;;;10.60;6.30;;;;;;;15.40;94.72;102104.00;4964223;28;20043;-83
2021/08/13 03:30:16;;;;;;;11.80;8.10;;;;;;;15.43;95.00;102103.16;4966310;28;20077;-83
2021/08/13 03:32:42;;;;;;;10.43;7.10;;;;;;;15.40;95.20;102087.22;4964564;28;20062;-81
2021/08/13 03:35:28;;;;;;;11.75;6.97;;;;;;;15.38;94.87;102089.81;4967095;28;20031;-85
2021/08/13 03:37:53;;;;;;;15.85;7.43;;;;;;;15.37;94.91;102093.34;4958080;28;20038;-86
2021/08/13 03:40:19;;;;;;;13.52;7.63;;;;;;;15.35;95.16;102089.78;4964001;28;20031;-83
2021/08/13 03:43:24;;;;;;;12.68;7.07;;;;;;;15.34;95.28;102082.66;4962209;28;20019;-81
2021/08/13 03:45:51;;;;;;;10.45;6.22;;;;;;;15.30;94.76;102070.22;4959733;28;20039;-82
2021/08/13 03:48:16;;;;;;;12.05;7.10;;;;;;;15.28;94.71;102078.16;4957218;28;20039;-84
2021/08/13 03:50:41;;;;;;;11.88;7.47;;;;;;;15.24;94.97;102080.75;4964352;28;20034;-81
2021/08/13 03:53:07;;;;;;;10.88;7.53;;;;;;;15.21;94.80;102078.06;4968502;28;20078;-81
2021/08/13 03:55:32;;;;;;;14.40;8.05;;;;;;;15.14;95.01;102072.63;4964588;28;20031;-80
2021/08/13 03:57:58;;;;;;;15.50;7.72;;;;;;;15.14;95.19;102075.28;4966264;28;20019;-79
2021/08/13 04:00:23;;;;;;;16.80;8.25;;;;;;;15.13;95.47;102075.25;4967066;28;20030;-83
2021/08/13 04:02:49;;;;;;;23.33;9.43;;;;;;;15.11;95.97;102079.63;4960235;28;20404;-81
2021/08/13 04:05:14;;;;;;;18.92;9.63;;;;;;;15.14;96.13;102080.59;4958712;28;20031;-83
2021/08/13 04:08:00;;;;;;;17.90;10.32;;;;;;;15.15;96.08;102078.81;4968833;28;20372;-80
2021/08/13 04:10:25;;;;;;;18.30;10.52;;;;;;;15.14;96.24;102088.53;4971957;28;20169;-80
2021/08/13 04:12:51;;;;;;;18.77;10.07;;;;;;;15.14;96.34;102096.50;4969780;28;20106;-81
2021/08/13 04:15:16;;;;;;;20.17;9.73;;;;;;;15.13;96.69;102100.00;4961253;28;20035;-82
2021/08/13 04:17:41;;;;;;;23.10;10.73;;;;;;;15.13;97.15;102094.69;4957630;28;20034;-82
2021/08/13 04:20:08;;;;;;;18.52;10.18;;;;;;;15.16;97.19;102099.16;4974136;28;20613;-82
2021/08/13 04:22:34;;;;;;;22.33;10.45;;;;;;;15.15;97.06;102103.59;4964854;28;20030;-79
2021/08/13 04:24:59;;;;;;;20.52;11.30;;;;;;;15.18;97.31;102098.34;4962196;28;20046;-81
2021/08/13 04:27:25;;;;;;;24.20;11.95;;;;;;;15.19;97.25;102099.22;4940102;28;20087;-82
2021/08/13 04:29:51;;;;;;;20.33;10.43;;;;;;;15.23;97.26;102101.06;4952919;29;20054;-83
2021/08/13 04:32:17;;;;;;;19.83;11.00;;;;;;;15.24;97.23;102100.19;4944135;28;20028;-84
2021/08/13 04:34:43;;;;;;;21.00;10.88;;;;;;;15.28;97.18;102098.50;4951378;29;20035;-77
2021/08/13 04:37:08;;;;;;;21.55;9.95;;;;;;;15.29;97.26;102101.16;4948163;28;20130;-83
2021/08/13 04:39:34;;;;;;;16.80;10.60;;;;;;;15.33;97.23;102092.41;4949380;28;20083;-81
2021/08/13 04:42:00;;;;;;;19.48;10.00;;;;;;;15.36;97.14;102096.88;4942507;28;20038;-80
2021/08/13 04:44:26;;;;;;;24.05;10.65;;;;;;;15.39;96.91;102090.72;4946982;29;20116;-81
2021/08/13 04:47:11;;;;;;;27.13;11.63;;;;;;;15.44;96.78;102081.97;4940761;28;20066;-87
2021/08/13 04:49:37;;;;;;;19.30;10.93;;;;;;;15.50;96.85;102087.38;4948357;28;20123;-85
2021/08/13 04:52:04;;;;;;;17.88;11.30;;;;;;;15.57;96.61;102084.81;4956683;28;20129;-82
2021/08/13 04:54:30;;;;;;;20.60;11.45;;;;;;;15.64;96.31;102084.94;4950361;28;20550;-84
2021/08/13 04:56:56;;;;;;;24.45;11.10;;;;;;;15.72;96.40;102085.06;4941281;28;20116;-82
2021/08/13 04:59:21;;;;;;;19.73;9.82;;;;;;;15.80;96.15;102087.84;4953073;28;20055;-83
2021/08/13 05:01:47;;;;;;;16.95;9.95;;;;;;;15.90;95.92;102088.88;4946199;29;20047;-80
2021/08/13 05:04:12;;;;;;;17.27;9.95;;;;;;;15.97;95.40;102083.69;4942118;28;20520;-84
2021/08/13 05:06:37;;;;;;;19.10;11.38;;;;;;;16.01;95.40;102087.28;4954201;28;20482;-81
2021/08/13 05:09:03;;;;;;;16.23;9.93;;;;;;;16.07;95.55;102087.34;4923801;29;20061;-80
2021/08/13 05:11:28;;;;;;;17.25;9.85;;;;;;;16.15;95.01;102085.69;4940155;28;20587;-82
2021/08/13 05:14:14;;;;;;;16.17;10.02;;;;;;;16.23;94.85;102092.88;4949087;28;20046;-78
2021/08/13 05:16:39;;;;;;;20.77;10.68;;;;;;;16.33;94.50;102092.13;4934689;28;20331;-81
2021/08/13 05:19:05;;;;;;;14.40;10.45;;;;;;;16.39;94.16;102089.56;4945644;28;20019;-84
2021/08/13 05:21:36;;;;;;;19.27;10.13;;;;;;;16.43;93.91;102091.38;4954452;29;20026;-82
2021/08/13 05:24:02;;;;;;;18.65;9.48;;;;;;;16.54;93.98;102087.97;4940454;29;20038;-79
2021/08/13 05:26:27;;;;;;;30.02;10.50;;;;;;;16.58;93.33;102081.81;4955734;29;20055;-79
2021/08/13 05:28:52;;;;;;;20.23;9.50;;;;;;;16.64;93.11;102084.53;4940968;28;20027;-80
2021/08/13 05:31:26;;;;;;;21.15;10.77;;;;;;;16.68;93.36;102096.97;4940614;29;20059;-78
2021/08/13 05:33:51;;;;;;;17.90;9.60;;;;;;;16.72;93.16;102092.59;4940966;29;20040;-82
2021/08/13 05:36:17;;;;;;;20.73;9.73;;;;;;;16.77;92.45;102096.19;4940006;29;20036;-83
2021/08/13 05:39:22;;;;;;;18.42;10.23;;;;;;;16.83;92.34;102097.16;4950436;28;20023;-80
2021/08/13 05:41:47;;;;;;;17.70;10.00;;;;;;;16.83;92.25;102089.19;4947281;29;20098;-81
2021/08/13 05:44:13;;;;;;;16.25;9.85;;;;;;;16.91;92.03;102099.03;4943100;28;20031;-81
2021/08/13 05:46:38;;;;;;;18.92;9.10;;;;;;;16.94;92.06;102099.97;4950025;28;20042;-84
2021/08/13 05:49:04;;;;;;;17.42;9.68;;;;;;;16.95;91.82;102099.06;4956399;28;20371;-81
2021/08/13 05:51:29;;;;;;;21.48;9.60;;;;;;;16.98;91.54;102100.88;4952337;28;20074;-83
2021/08/13 05:53:55;;;;;;;26.38;10.07;;;;;;;16.99;92.18;102102.66;4952667;28;20031;-83
2021/08/13 05:56:20;;;;;;;17.25;9.43;;;;;;;17.02;91.90;102115.97;4933344;29;20029;-83
2021/08/13 05:59:06;;;;;;;15.40;9.43;;;;;;;17.02;91.89;102111.56;4947399;28;20048;-82
2021/08/13 06:01:31;;;;;;;18.17;9.27;;;;;;;17.13;91.85;102121.41;4946001;28;20042;-80
2021/08/13 06:03:57;;;;;;;16.45;9.80;;;;;;;17.15;91.50;102120.53;4933644;29;20027;-81
2021/08/13 06:06:22;;;;;;;22.80;10.10;;;;;;;17.22;91.16;102115.31;4945471;29;20036;-80
2021/08/13 06:08:48;;;;;;;18.55;9.30;;;;;;;17.28;91.40;102118.00;4931387;29;20043;-81
2021/08/13 06:11:13;;;;;;;20.67;8.75;;;;;;;17.32;91.16;102122.47;4937380;28;20131;-82
2021/08/13 06:13:39;;;;;;;16.30;9.80;;;;;;;17.37;90.78;102126.06;4938669;29;20034;-77
2021/08/13 06:16:05;;;;;;;14.95;8.02;;;;;;;17.43;90.51;102128.78;4953544;28;20019;-84
2021/08/13 06:18:31;;;;;;;13.02;7.93;;;;;;;17.48;89.89;102129.69;4953491;28;20060;-81
2021/08/13 06:20:56;;;;;;;17.00;7.95;;;;;;;17.56;90.29;102129.78;4942029;28;20023;-81
2021/08/13 06:23:22;;;;;;;14.55;7.65;;;;;;;17.62;89.65;102128.94;4944557;28;20452;-81
2021/08/13 06:25:47;;;;;;;12.77;7.25;;;;;;;17.70;89.66;102127.22;4948099;28;20047;-82
2021/08/13 06:28:13;;;;;;;19.67;7.47;;;;;;;17.78;89.54;102128.16;4941549;28;20034;-82
2021/08/13 06:30:39;;;;;;;15.88;7.43;;;;;;;17.86;88.89;102137.13;4943277;28;20027;-81
2021/08/13 06:33:04;;;;;;;12.43;7.28;;;;;;;17.97;87.97;102142.56;4942688;28;20111;-79
2021/08/13 06:35:31;;;;;;;10.32;6.80;;;;;;;18.03;87.59;102139.03;4930191;29;20040;-86
2021/08/13 06:38:16;;;;;;;10.93;6.75;;;;;;;18.22;87.44;102133.78;4942182;29;20032;-80
2021/08/13 06:40:42;;;;;;;13.93;6.70;;;;;;;18.60;86.05;102136.66;4946599;28;20035;-83
2021/08/13 06:43:27;;;;;;;12.35;6.43;;;;;;;19.10;83.55;102127.06;4945183;28;20025;-79
2021/08/13 06:45:52;;;;;;;12.48;6.22;;;;;;;19.40;81.76;102133.31;4941606;28;20044;-82
2021/08/13 06:48:18;;;;;;;13.32;5.75;;;;;;;19.59;81.08;102146.66;4943968;28;20099;-77
2021/08/13 06:50:43;;;;;;;10.30;5.47;;;;;;;19.60;79.89;102143.09;4945638;28;20064;-81
2021/08/13 06:53:09;;;;;;;9.48;4.93;;;;;;;19.57;80.58;102152.00;4945526;28;20020;-80
2021/08/13 06:55:34;;;;;;;7.75;4.88;;;;;;;19.50;79.63;102143.09;4937227;28;20062;-79
2021/08/13 06:58:04;;;;;;;10.50;4.03;;;;;;;19.35;79.37;102137.75;4948766;28;20020;-84
2021/08/13 07:00:30;;;;;;;10.73;4.60;;;;;;;19.21;78.33;102151.97;4937974;28;20038;-88
2021/08/13 07:02:56;;;;;;;7.88;4.35;;;;;;;18.95;78.29;102146.59;4947438;28;20151;-80
2021/08/13 07:05:23;;;;;;;11.15;4.13;;;;;;;18.86;78.30;102152.75;4939230;28;20130;-81
2021/08/13 07:07:51;;;;;;;8.80;3.40;;;;;;;18.80;77.77;102143.81;4943122;28;20019;-80
2021/08/13 07:10:17;;;;;;;7.63;3.40;;;;;;;18.96;77.09;102147.47;4950560;28;20036;-81
2021/08/13 07:12:45;;;;;;;10.82;3.85;;;;;;;19.11;75.88;102139.47;4947059;28;20020;-84
2021/08/13 07:15:11;;;;;;;6.50;3.80;;;;;;;19.19;75.79;102131.50;4943112;28;20118;-79
2021/08/13 07:17:56;;;;;;;5.47;3.20;;;;;;;19.38;72.87;102127.97;4938449;28;20051;-78
2021/08/13 07:20:42;;;;;;;9.27;3.40;;;;;;;19.54;71.86;102134.19;4943929;28;20043;-80
2021/08/13 07:23:07;;;;;;;12.38;3.30;;;;;;;19.63;71.79;102143.09;4951768;28;20039;-81
2021/08/13 07:25:33;;;;;;;9.95;3.20;;;;;;;19.87;71.34;102126.19;4944159;28;20390;-85
2021/08/13 07:27:58;;;;;;;7.70;2.80;;;;;;;20.13;70.96;102122.56;4940988;28;20487;-83
2021/08/13 07:30:24;;;;;;;6.53;2.55;;;;;;;20.26;69.26;102144.81;4946118;28;20426;-81
2021/08/13 07:32:50;;;;;;;8.90;3.50;;;;;;;20.42;70.06;102162.59;4940500;28;20066;-84
2021/08/13 07:35:18;;;;;;;8.45;3.15;;;;;;;20.37;67.54;102173.31;4942768;28;20046;-83
2021/08/13 07:37:46;;;;;;;6.10;2.97;;;;;;;20.01;68.29;102183.16;4945530;28;20035;-79
2021/08/13 07:40:14;;;;;;;6.80;3.03;;;;;;;20.02;69.29;102181.38;4945222;28;20043;-81
2021/08/13 07:42:42;;;;;;;6.32;2.40;;;;;;;20.27;69.24;102174.22;4943586;28;20024;-82
2021/08/13 07:45:10;;;;;;;6.82;2.85;;;;;;;20.44;68.84;102160.78;4939352;28;20032;-83
2021/08/13 07:47:35;;;;;;;5.57;2.55;;;;;;;20.69;68.74;102166.97;4939250;29;20039;-86
2021/08/13 07:50:01;;;;;;;4.75;3.13;;;;;;;20.71;68.53;102158.94;4938266;28;20020;-78
2021/08/13 07:52:29;;;;;;;4.63;3.03;;;;;;;20.58;68.61;102146.47;4944248;29;20131;-83
2021/08/13 07:55:00;;;;;;;6.75;2.95;;;;;;;20.42;68.53;102159.91;4942308;28;20550;-84
2021/08/13 07:57:28;;;;;;;10.27;3.70;;;;;;;20.09;69.34;102167.13;4941495;28;20032;-82
2021/08/13 08:00:13;;;;;;;7.50;2.80;;;;;;;19.98;69.40;102179.59;4948078;28;20035;-80
2021/08/13 08:02:40;;;;;;;7.43;3.20;;;;;;;19.93;69.41;102186.75;4944313;28;20032;-80
2021/08/13 08:05:14;;;;;;;6.00;2.42;;;;;;;20.08;70.24;102177.84;4951797;28;20051;-84
2021/08/13 08:07:40;;;;;;;6.25;2.67;;;;;;;20.23;69.18;102161.75;4944370;29;20048;-82
2021/08/13 08:10:06;;;;;;;7.07;3.10;;;;;;;20.60;68.00;102171.44;4943134;28;20398;-83
2021/08/13 08:12:31;;;;;;;6.97;3.38;;;;;;;20.72;67.87;102168.75;4937562;28;20031;-84
2021/08/13 08:14:57;;;;;;;6.43;2.90;;;;;;;20.69;66.67;102166.97;4947641;28;20057;-84
2021/08/13 08:17:22;;;;;;;8.27;3.53;;;;;;;20.69;67.59;102183.00;4941252;28;20036;-81
2021/08/13 08:19:50;;;;;;;7.28;3.58;;;;;;;20.52;67.83;102172.38;4941668;28;20495;-84
2021/08/13 08:22:36;;;;;;;8.85;3.10;;;;;;;20.63;68.99;102182.09;4935823;29;20032;-80
2021/08/13 08:25:02;;;;;;;9.93;3.80;;;;;;;20.88;68.88;102202.53;4944105;28;20054;-80
2021/08/13 08:27:27;;;;;;;6.15;2.90;;;;;;;20.77;67.21;102191.00;4945305;28;20545;-84
2021/08/13 08:29:53;;;;;;;6.82;2.80;;;;;;;20.53;67.10;102208.88;4941884;28;20028;-85
2021/08/13 08:32:19;;;;;;;6.82;2.88;;;;;;;20.51;67.66;102205.34;4948307;29;20032;-84
2021/08/13 08:34:44;;;;;;;4.53;2.80;;;;;;;20.83;67.42;102204.34;4943353;28;20042;-84
2021/08/13 08:37:18;;;;;;;6.32;2.80;;;;;;;21.26;66.76;102202.38;4945166;29;20047;-79
2021/08/13 08:39:45;;;;;;;4.88;2.85;;;;;;;21.45;64.78;102201.31;4944576;28;20048;-83
2021/08/13 08:42:35;;;;;;;6.55;2.88;;;;;;;21.61;64.26;102207.50;4944162;28;20039;-83
2021/08/13 08:45:02;;;;;;;5.65;2.92;;;;;;;21.10;64.44;102204.22;4939234;28;20027;-80
2021/08/13 08:47:32;;;;;;;3.75;2.47;;;;;;;21.32;63.43;102216.56;4937297;28;20181;-83
2021/08/13 08:49:58;;;;;;;10.45;3.50;;;;;;;21.51;63.28;102217.38;4943481;29;20027;-81
2021/08/13 08:52:30;;;;;;;6.47;2.83;;;;;;;21.98;62.52;102217.03;4942454;28;20054;-83
2021/08/13 08:54:56;;;;;;;5.20;2.80;;;;;;;22.32;60.52;102216.69;4919000;28;20350;-80
2021/08/13 08:57:47;;;;;;;7.70;2.63;;;;;;;22.34;59.58;102225.59;4948205;29;20051;-81
2021/08/13 09:00:33;;;;;;;9.88;2.70;;;;;;;21.99;58.94;102232.19;4935215;28;20140;-82
2021/08/13 09:03:02;;;;;;;4.88;2.47;;;;;;;22.33;59.20;102218.47;4941659;28;20332;-82
2021/08/13 09:05:49;;;;;;;4.05;2.03;;;;;;;22.35;57.12;102219.34;4945993;29;20041;-81
2021/08/13 09:08:18;;;;;;;10.45;2.35;;;;;;;22.36;55.59;102219.34;4952318;28;20050;-86
2021/08/13 09:10:46;;;;;;;6.00;2.15;;;;;;;22.09;57.08;102225.84;4946365;28;20038;-78
2021/08/13 09:13:43;;;;;;;;;;;;;;;;;;;;;
2021/08/13 09:16:37;;;;;;;7.75;2.20;;;;;;;22.15;58.17;102224.88;4945152;28;20044;-78
2021/08/13 09:19:14;;;;;;;9.25;2.63;;;;;;;21.83;58.12;102218.91;4949627;29;20055;-86
2021/08/13 09:22:05;;;;;;;6.57;2.40;;;;;;;21.69;59.80;102215.44;4954434;28;20391;-85
2021/08/13 09:24:40;;;;;;;8.45;2.47;;;;;;;22.23;56.20;102218.56;4939394;28;20513;-82
2021/08/13 09:27:24;;;;;;;11.27;2.42;;;;;;;22.32;52.43;102201.47;4936916;29;20031;-80
2021/08/13 09:30:13;;;;;;;8.10;3.35;;;;;;;22.22;54.49;102206.06;4932802;28;20483;-80
2021/08/13 09:32:43;;;;;;;5.88;2.30;;;;;;;22.30;54.06;102214.03;4942102;28;20032;-78
2021/08/13 09:35:29;;;;;;;4.75;2.15;;;;;;;22.96;53.14;102219.53;4950671;28;20042;-82
2021/08/13 09:37:55;;;;;;;8.75;2.85;;;;;;;23.21;53.13;102209.34;4950488;29;20118;-81
2021/08/13 09:40:20;;;;;;;8.30;2.72;;;;;;;22.98;52.39;102223.06;4955298;28;20186;-81
2021/08/13 09:43:02;;;;;;;12.82;3.05;;;;;;;23.17;53.20;102224.66;4951036;28;20042;-80
2021/08/13 09:45:36;;;;;;;12.35;3.78;;;;;;;23.24;51.82;102223.63;4947182;28;20020;-85
2021/08/13 09:48:05;;;;;;;12.85;3.08;;;;;;;23.22;50.88;102217.41;4935906;29;20113;-81
2021/08/13 09:50:42;;;;;;;8.75;2.80;;;;;;;24.08;51.43;102227.72;4944453;28;20024;-86
2021/08/13 09:53:18;;;;;;;12.73;2.95;;;;;;;24.12;49.47;102237.50;4947386;28;20032;-82
2021/08/13 09:55:44;;;;;;;9.80;3.50;;;;;;;24.07;48.25;102217.88;4929338;28;20027;-83
2021/08/13 09:58:11;;;;;;;7.57;2.45;;;;;;;23.60;49.75;102227.59;4946872;28;20428;-83
2021/08/13 10:01:22;;;;;;;9.38;2.70;;;;;;;23.70;51.05;102245.34;4937407;29;20045;-87
2021/08/13 10:03:54;;;;;;;6.13;2.08;;;;;;;23.39;51.83;102252.06;4936522;28;20463;-87
2021/08/13 10:06:29;;;;;;;10.38;2.83;;;;;;;23.66;52.18;102243.63;4942124;28;20035;-84
2021/08/13 10:08:55;;;;;;;11.10;2.60;;;;;;;24.71;48.33;102229.22;4937270;28;20039;-82
2021/08/13 10:11:23;;;;;;;11.13;2.83;;;;;;;24.78;46.44;102226.41;4945037;28;20031;-80
2021/08/13 10:13:52;;;;;;;6.90;2.30;;;;;;;24.66;45.42;102219.47;4951221;28;20028;-82
2021/08/13 10:16:27;;;;;;;10.30;2.53;;;;;;;24.27;46.49;102213.91;4946344;28;21366;-83
2021/08/13 10:19:18;;;;;;;11.15;2.60;;;;;;;24.14;47.04;102229.41;4943316;28;20074;-80
2021/08/13 10:21:51;;;;;;;8.70;2.45;;;;;;;24.65;51.46;102244.59;4939825;28;20065;-82
2021/08/13 10:24:20;;;;;;;6.80;2.50;;;;;;;25.42;45.54;102221.41;4940047;28;20045;-86
2021/08/13 10:26:48;;;;;;;8.75;2.78;;;;;;;25.23;45.93;102218.22;4939388;28;20087;-84
2021/08/13 10:29:33;;;;;;;12.38;2.80;;;;;;;25.25;47.24;102233.44;4945900;28;20038;-84
2021/08/13 10:31:59;;;;;;;12.45;3.17;;;;;;;25.92;44.59;102231.84;4940947;28;20035;-80
2021/08/13 10:34:26;;;;;;;8.73;3.15;;;;;;;26.15;44.60;102231.28;4942341;28;20032;-85
2021/08/13 10:37:17;;;;;;;10.05;3.38;;;;;;;26.08;46.03;102235.06;4918548;29;20023;-79
2021/08/13 10:39:45;;;;;;;7.75;2.55;;;;;;;25.37;46.48;102231.44;4938759;28;20388;-83
2021/08/13 10:42:24;;;;;;;11.07;3.25;;;;;;;24.89;45.36;102225.25;4940197;28;20027;-79
2021/08/13 10:44:55;;;;;;;15.98;3.38;;;;;;;24.18;47.09;102248.13;4935141;28;20436;-83
2021/08/13 10:47:58;;;;;;;12.02;2.90;;;;;;;23.76;48.17;102236.31;4936940;28;20515;-82
2021/08/13 10:50:41;;;;;;;14.05;3.50;;;;;;;23.33;49.25;102246.81;4939147;28;20134;-78
2021/08/13 10:53:30;;;;;;;12.07;3.22;;;;;;;22.79;51.31;102268.94;4940715;28;20054;-84
2021/08/13 10:56:16;;;;;;;9.93;3.05;;;;;;;22.58;51.71;102256.66;4955099;28;20035;-79
2021/08/13 10:59:01;;;;;;;10.23;2.85;;;;;;;22.52;53.39;102271.03;4951001;28;20039;-81
2021/08/13 11:01:30;;;;;;;10.48;2.90;;;;;;;22.69;52.29;102262.81;4946795;28;20043;-83
2021/08/13 11:04:05;;;;;;;;;;;;;;;;;;;;;
2021/08/13 11:06:42;;;;;;;8.40;2.63;;;;;;;22.95;51.08;102266.06;4923119;28;20035;-86
2021/08/13 11:09:39;;;;;;;14.30;3.05;;;;;;;22.93;51.87;102278.63;4946276;28;20283;-84
2021/08/13 11:12:21;;;;;;;9.10;2.67;;;;;;;22.72;50.85;102264.53;4929756;28;20062;-84
2021/08/13 11:15:15;;;;;;;14.77;3.45;;;;;;;22.42;51.28;102269.34;4941442;28;20113;-86
2021/08/13 11:17:51;;;;;;;14.10;2.97;;;;;;;22.42;52.71;102269.34;4941203;28;20095;-81
2021/08/13 11:20:16;;;;;;;8.50;2.70;;;;;;;22.55;52.32;102279.03;4950258;29;20086;-85
2021/08/13 11:23:07;;;;;;;9.40;2.70;;;;;;;22.92;52.80;102276.84;4932588;29;20031;-82
2021/08/13 11:25:48;;;;;;;10.07;2.60;;;;;;;23.38;50.91;102260.16;4949033;28;20095;-79
2021/08/13 11:28:33;;;;;;;;;;;;;;;23.97;50.89;102267.34;4946432;28;20055;-80
2021/08/13 11:31:00;;;;;;;13.20;3.95;;;;;;;24.08;49.09;102244.72;4935406;28;19918;-83
2021/08/13 11:33:37;;;;;;;12.05;3.03;;;;;;;24.16;49.66;102239.22;4937928;28;20131;-86
2021/08/13 11:36:06;;;;;;;12.68;3.17;;;;;;;24.04;49.19;102228.69;4937478;28;20036;-84
2021/08/13 11:38:53;;;;;;;12.57;2.88;;;;;;;23.61;49.33;102234.75;4944108;29;20043;-82
2021/08/13 11:41:23;;;;;;;9.30;2.42;;;;;;;23.35;49.92;102249.47;4940245;28;20106;-84
2021/08/13 11:43:59;;;;;;;8.10;2.28;;;;;;;23.25;50.74;102254.09;4940342;29;20135;-87